Time;durP1;ratioP1;P1;durP2;ratioP2;P2;SDS_P1;SDS_P2;PMS_P1;PMS_P2;Temp;Humidity;BMP_temperature;BMP_pressure;BME280_temperature;BME280_humidity;BME280_pressure;Samples;Min_cycle;Max_cycle;Signal;HPM_P1;HPM_P2
2021/05/10 00:01:07;;;;;;;4.57;1.25;;;;;;;;;;5031719;28;20299;-63
2021/05/10 00:03:32;;;;;;;4.47;1.30;;;;;;;;;;5032313;28;20029;-63
2021/05/10 00:05:57;;;;;;;7.80;1.30;;;;;;;;;;5031928;28;20048;-64
2021/05/10 00:08:25;;;;;;;7.87;1.40;;;;;;;;;;5031114;28;20256;-63
2021/05/10 00:10:50;;;;;;;6.25;1.10;;;;;;;;;;5031964;28;20260;-63
2021/05/10 00:13:16;;;;;;;6.40;1.20;;;;;;;;;;5032018;28;20083;-62
2021/05/10 00:15:42;;;;;;;2.63;1.27;;;;;;;;;;5031565;28;20284;-63
2021/05/10 00:18:07;;;;;;;4.93;1.17;;;;;;;;;;5031991;28;20020;-63
2021/05/10 00:20:33;;;;;;;2.90;1.43;;;;;;;;;;5040617;23;20578;-63
2021/05/10 00:22:59;;;;;;;13.07;1.83;;;;;;;;;;5033837;28;20876;-63
2021/05/10 00:25:24;;;;;;;5.43;1.10;;;;;;;;;;5032767;28;20105;-63
2021/05/10 00:27:49;;;;;;;4.88;2.08;;;;;;;;;;5032149;28;20052;-63
2021/05/10 00:30:15;;;;;;;9.53;1.30;;;;;;;;;;5033729;28;20083;-63
2021/05/10 00:32:40;;;;;;;4.80;1.02;;;;;;;;;;5031221;28;20632;-63
2021/05/10 00:35:05;;;;;;;0.95;0.40;;;;;;;;;;5031172;28;20022;-63
2021/05/10 00:37:31;;;;;;;4.15;1.35;;;;;;;;;;5030777;28;20029;-63
2021/05/10 00:39:56;;;;;;;2.58;1.08;;;;;;;;;;5031078;28;20127;-63
2021/05/10 00:42:21;;;;;;;1.87;0.80;;;;;;;;;;5030306;28;20045;-63
2021/05/10 00:44:46;;;;;;;11.07;1.90;;;;;;;;;;5030583;28;20044;-63
2021/05/10 00:47:11;;;;;;;1.70;1.00;;;;;;;;;;5030669;28;20029;-63
2021/05/10 00:49:36;;;;;;;7.13;1.50;;;;;;;;;;5030088;28;20029;-63
2021/05/10 00:52:02;;;;;;;3.70;1.40;;;;;;;;;;5030528;28;20436;-63
2021/05/10 00:54:27;;;;;;;2.38;1.15;;;;;;;;;;5031238;28;20097;-63
2021/05/10 00:56:52;;;;;;;12.35;1.40;;;;;;;;;;5030379;28;20497;-63
2021/05/10 00:59:18;;;;;;;5.67;1.00;;;;;;;;;;5030762;28;20394;-63
2021/05/10 01:01:43;;;;;;;10.00;1.52;;;;;;;;;;5030694;28;20020;-63
2021/05/10 01:04:08;;;;;;;0.70;0.50;;;;;;;;;;5030452;28;20029;-63
2021/05/10 01:06:33;;;;;;;4.13;1.43;;;;;;;;;;5030318;28;20033;-63
2021/05/10 01:08:59;;;;;;;3.30;0.87;;;;;;;;;;5030193;28;20021;-63
2021/05/10 01:11:24;;;;;;;6.28;1.80;;;;;;;;;;5030853;28;20260;-63
2021/05/10 01:13:49;;;;;;;9.75;1.45;;;;;;;;;;5029664;28;20029;-63
2021/05/10 01:16:14;;;;;;;3.87;2.00;;;;;;;;;;5029971;28;20044;-63
2021/05/10 01:18:41;;;;;;;4.60;1.33;;;;;;;;;;5030721;28;20088;-63
2021/05/10 01:21:06;;;;;;;4.88;1.20;;;;;;;;;;5030464;28;20021;-63
2021/05/10 01:23:32;;;;;;;2.70;1.20;;;;;;;;;;5030066;28;20466;-63
2021/05/10 01:25:57;;;;;;;2.67;1.13;;;;;;;;;;5030288;28;20206;-63
2021/05/10 01:28:22;;;;;;;3.15;1.40;;;;;;;;;;5030307;28;20017;-63
2021/05/10 01:30:50;;;;;;;4.22;1.20;;;;;;;;;;5029459;28;20065;-63
2021/05/10 01:33:16;;;;;;;2.65;1.20;;;;;;;;;;5030888;28;20139;-63
2021/05/10 01:35:42;;;;;;;2.03;0.85;;;;;;;;;;5029983;28;20552;-63
2021/05/10 01:38:08;;;;;;;6.13;0.98;;;;;;;;;;5030112;28;20052;-63
2021/05/10 01:40:33;;;;;;;4.20;1.17;;;;;;;;;;5030182;28;20041;-63
2021/05/10 01:42:59;;;;;;;4.05;1.35;;;;;;;;;;5029799;28;20035;-63
2021/05/10 01:45:24;;;;;;;2.95;1.35;;;;;;;;;;5029331;28;20068;-63
2021/05/10 01:47:53;;;;;;;5.60;1.45;;;;;;;;;;5029814;28;20021;-63
2021/05/10 01:50:19;;;;;;;2.07;0.93;;;;;;;;;;5030292;28;20021;-63
2021/05/10 01:52:45;;;;;;;3.55;1.40;;;;;;;;;;5020143;28;20108;-63
2021/05/10 01:55:10;;;;;;;3.67;1.35;;;;;;;;;;5029651;28;20108;-63
2021/05/10 01:57:36;;;;;;;7.60;1.02;;;;;;;;;;5029515;28;20025;-62
2021/05/10 02:00:01;;;;;;;4.13;1.30;;;;;;;;;;5029683;28;20532;-62
2021/05/10 02:02:26;;;;;;;3.28;1.15;;;;;;;;;;5026303;28;20056;-62
2021/05/10 02:05:03;;;;;;;4.90;1.33;;;;;;;;;;5029570;28;20139;-62
2021/05/10 02:07:28;;;;;;;4.57;1.50;;;;;;;;;;5029566;28;20067;-62
2021/05/10 02:09:54;;;;;;;3.40;1.87;;;;;;;;;;5029380;28;20049;-62
2021/05/10 02:12:19;;;;;;;6.03;1.43;;;;;;;;;;5030047;28;20260;-62
2021/05/10 02:14:44;;;;;;;3.30;1.33;;;;;;;;;;5028681;28;20026;-62
2021/05/10 02:17:10;;;;;;;2.90;0.97;;;;;;;;;;5029465;28;20028;-62
2021/05/10 02:19:35;;;;;;;6.82;1.30;;;;;;;;;;5029934;28;20100;-62
2021/05/10 02:22:00;;;;;;;3.20;1.17;;;;;;;;;;5029617;28;20478;-64
2021/05/10 02:24:25;;;;;;;6.65;1.67;;;;;;;;;;5029790;28;20272;-64
2021/05/10 02:26:51;;;;;;;4.33;1.53;;;;;;;;;;5029483;28;20626;-64
2021/05/10 02:29:16;;;;;;;3.80;1.27;;;;;;;;;;5029241;28;20031;-64
2021/05/10 02:31:41;;;;;;;6.70;1.40;;;;;;;;;;5029467;28;20045;-64
2021/05/10 02:34:06;;;;;;;3.33;1.38;;;;;;;;;;5029365;28;20079;-64
2021/05/10 02:36:31;;;;;;;2.53;1.40;;;;;;;;;;5029227;28;20084;-64
2021/05/10 02:38:57;;;;;;;2.73;1.03;;;;;;;;;;5029732;28;20417;-64
2021/05/10 02:41:22;;;;;;;6.40;1.55;;;;;;;;;;5029336;28;20338;-62
2021/05/10 02:43:47;;;;;;;5.93;1.47;;;;;;;;;;5029274;28;20060;-62
2021/05/10 02:46:12;;;;;;;7.50;1.40;;;;;;;;;;5028793;28;20418;-62
2021/05/10 02:48:37;;;;;;;5.17;1.43;;;;;;;;;;5028608;28;20276;-62
2021/05/10 02:51:02;;;;;;;7.63;1.77;;;;;;;;;;5011952;28;20075;-62
2021/05/10 02:53:28;;;;;;;5.23;1.60;;;;;;;;;;5028855;28;20079;-62
2021/05/10 02:55:53;;;;;;;3.55;1.48;;;;;;;;;;5029092;28;20260;-62
2021/05/10 02:58:18;;;;;;;4.65;1.38;;;;;;;;;;5022268;28;20022;-62
2021/05/10 03:00:43;;;;;;;2.30;1.20;;;;;;;;;;5029042;28;20067;-62
2021/05/10 03:03:08;;;;;;;2.97;1.53;;;;;;;;;;5029315;28;20025;-62
2021/05/10 03:05:34;;;;;;;3.23;1.50;;;;;;;;;;5029156;28;20313;-62
2021/05/10 03:08:01;;;;;;;4.88;1.17;;;;;;;;;;5029279;28;20036;-62
2021/05/10 03:10:26;;;;;;;8.65;1.50;;;;;;;;;;5029148;28;20773;-62
2021/05/10 03:12:53;;;;;;;3.87;1.50;;;;;;;;;;5031888;28;20057;-62
2021/05/10 03:15:18;;;;;;;3.97;2.08;;;;;;;;;;5032258;28;20284;-62
2021/05/10 03:17:44;;;;;;;5.85;1.38;;;;;;;;;;5032379;28;20151;-62
2021/05/10 03:20:13;;;;;;;6.30;1.50;;;;;;;;;;5033015;28;20032;-62
2021/05/10 03:22:39;;;;;;;3.22;1.30;;;;;;;;;;5032024;28;20057;-62
2021/05/10 03:25:05;;;;;;;4.75;1.30;;;;;;;;;;5032576;28;20111;-62
2021/05/10 03:27:39;;;;;;;5.82;1.38;;;;;;;;;;5032133;28;20036;-62
2021/05/10 03:30:04;;;;;;;3.60;1.10;;;;;;;;;;5032595;28;20029;-62
2021/05/10 03:32:30;;;;;;;6.13;1.40;;;;;;;;;;5031914;28;20405;-62
2021/05/10 03:34:55;;;;;;;3.97;1.07;;;;;;;;;;5030872;28;20462;-62
2021/05/10 03:37:20;;;;;;;3.50;1.40;;;;;;;;;;5032407;28;20104;-62
2021/05/10 03:39:45;;;;;;;5.70;1.80;;;;;;;;;;5031451;28;20032;-62
2021/05/10 03:42:10;;;;;;;3.43;1.47;;;;;;;;;;5032067;28;20032;-62
2021/05/10 03:44:35;;;;;;;2.20;1.20;;;;;;;;;;5031621;28;20079;-62
2021/05/10 03:47:01;;;;;;;2.97;1.30;;;;;;;;;;5031808;28;20112;-62
2021/05/10 03:49:26;;;;;;;8.93;1.52;;;;;;;;;;5014349;28;20481;-62
2021/05/10 03:51:51;;;;;;;3.70;1.00;;;;;;;;;;5031869;28;20025;-62
2021/05/10 03:54:16;;;;;;;4.53;1.10;;;;;;;;;;5032021;28;20733;-62
2021/05/10 03:56:41;;;;;;;2.50;1.27;;;;;;;;;;5032304;28;20025;-64
2021/05/10 03:59:06;;;;;;;3.27;1.33;;;;;;;;;;5032316;28;20021;-64
2021/05/10 04:01:32;;;;;;;2.60;1.30;;;;;;;;;;5032009;28;20093;-64
2021/05/10 04:13:35;;;;;;;5.20;1.10;;;;;;;;;;5031598;28;20025;-65
2021/05/10 04:14:19;;;;;;;7.07;1.45;;;;;;;;;;5030133;28;20034;-65
2021/05/10 04:16:44;;;;;;;5.13;1.15;;;;;;;;;;5031339;28;20448;-64
2021/05/10 04:19:10;;;;;;;3.20;1.20;;;;;;;;;;5031451;28;20071;-62
2021/05/10 04:21:35;;;;;;;3.50;1.27;;;;;;;;;;5030682;28;20276;-62
2021/05/10 04:24:00;;;;;;;8.23;1.53;;;;;;;;;;5030237;28;20052;-62
2021/05/10 04:26:25;;;;;;;5.60;1.70;;;;;;;;;;5013461;28;20318;-62
2021/05/10 04:28:50;;;;;;;5.90;1.43;;;;;;;;;;5030769;28;20263;-62
2021/05/10 04:31:15;;;;;;;6.60;0.90;;;;;;;;;;5031103;28;20485;-62
2021/05/10 04:33:41;;;;;;;3.80;1.63;;;;;;;;;;5031312;28;20021;-62
2021/05/10 04:36:06;;;;;;;4.23;1.13;;;;;;;;;;5030518;28;20470;-62
2021/05/10 04:38:31;;;;;;;2.95;1.17;;;;;;;;;;5030896;28;20268;-62
2021/05/10 04:40:56;;;;;;;1.57;1.13;;;;;;;;;;5031709;28;20105;-62
2021/05/10 04:43:22;;;;;;;12.20;1.70;;;;;;;;;;5030522;28;20121;-62
2021/05/10 04:45:47;;;;;;;3.38;0.98;;;;;;;;;;5031062;28;20053;-62
2021/05/10 04:48:13;;;;;;;3.70;0.70;;;;;;;;;;5031365;28;20025;-62
2021/05/10 04:50:38;;;;;;;3.78;1.23;;;;;;;;;;5030442;28;20025;-62
2021/05/10 04:53:03;;;;;;;2.28;0.88;;;;;;;;;;5025761;28;20036;-64
2021/05/10 04:55:28;;;;;;;3.27;0.90;;;;;;;;;;5021874;28;20030;-65
2021/05/10 04:57:53;;;;;;;8.90;1.77;;;;;;;;;;4998192;28;20261;-62
2021/05/10 05:00:19;;;;;;;3.63;1.23;;;;;;;;;;5028086;28;20025;-62
2021/05/10 05:02:44;;;;;;;4.90;1.20;;;;;;;;;;5027163;28;20053;-62
2021/05/10 05:05:10;;;;;;;7.00;1.35;;;;;;;;;;5025875;28;20031;-62
2021/05/10 05:07:35;;;;;;;5.40;1.13;;;;;;;;;;5025881;28;20030;-62
2021/05/10 05:10:01;;;;;;;2.58;0.80;;;;;;;;;;5028051;28;20029;-62
2021/05/10 05:12:26;;;;;;;8.98;1.38;;;;;;;;;;5027682;28;20025;-62
2021/05/10 05:14:52;;;;;;;3.20;1.10;;;;;;;;;;5026653;28;20477;-62
2021/05/10 05:17:17;;;;;;;17.20;1.50;;;;;;;;;;5026379;28;20287;-62
2021/05/10 05:19:42;;;;;;;1.92;1.10;;;;;;;;;;5027563;28;20259;-63
2021/05/10 05:22:08;;;;;;;3.10;1.37;;;;;;;;;;5028529;28;20025;-62
2021/05/10 05:24:33;;;;;;;6.15;1.17;;;;;;;;;;5027557;28;20660;-62
2021/05/10 05:26:58;;;;;;;4.30;1.23;;;;;;;;;;5027969;28;20017;-63
2021/05/10 05:29:23;;;;;;;1.23;0.80;;;;;;;;;;5027915;28;20029;-62
2021/05/10 05:31:49;;;;;;;3.38;1.17;;;;;;;;;;5025863;28;20025;-62
2021/05/10 05:34:15;;;;;;;2.63;1.25;;;;;;;;;;5023784;28;20025;-62
2021/05/10 05:36:40;;;;;;;7.53;1.35;;;;;;;;;;5026970;28;20045;-62
2021/05/10 05:39:07;;;;;;;11.10;1.57;;;;;;;;;;5028026;28;20036;-62
2021/05/10 05:41:32;;;;;;;3.90;1.00;;;;;;;;;;5027927;28;20029;-62
2021/05/10 05:43:58;;;;;;;1.48;0.98;;;;;;;;;;5025983;28;20036;-63
2021/05/10 05:46:30;;;;;;;6.67;1.33;;;;;;;;;;5020154;28;20021;-62
2021/05/10 05:48:55;;;;;;;5.10;1.55;;;;;;;;;;5030203;28;20025;-63
2021/05/10 05:51:22;;;;;;;5.60;2.15;;;;;;;;;;5029922;28;20108;-63
2021/05/10 05:53:47;;;;;;;2.28;1.45;;;;;;;;;;5030045;28;20044;-63
2021/05/10 05:56:12;;;;;;;7.93;2.10;;;;;;;;;;5029459;28;20021;-63
2021/05/10 05:58:38;;;;;;;2.85;1.17;;;;;;;;;;5029441;28;20032;-63
2021/05/10 06:01:03;;;;;;;4.35;0.95;;;;;;;;;;5030136;28;20021;-62
2021/05/10 06:03:28;;;;;;;1.67;0.93;;;;;;;;;;5029699;28;20010;-63
2021/05/10 06:05:53;;;;;;;5.03;1.40;;;;;;;;;;5026347;28;20064;-63
2021/05/10 06:08:19;;;;;;;4.85;1.30;;;;;;;;;;5025203;28;20076;-63
2021/05/10 06:10:45;;;;;;;1.33;1.00;;;;;;;;;;5020640;28;20103;-63
2021/05/10 06:13:11;;;;;;;2.53;1.00;;;;;;;;;;5027348;28;20118;-64
2021/05/10 06:15:36;;;;;;;2.30;1.13;;;;;;;;;;5027851;28;20441;-63
2021/05/10 06:18:02;;;;;;;1.05;0.82;;;;;;;;;;5029373;28;20260;-63
2021/05/10 06:20:27;;;;;;;3.05;1.02;;;;;;;;;;5029960;28;20022;-63
2021/05/10 06:22:53;;;;;;;1.57;1.00;;;;;;;;;;5029062;28;20030;-63
2021/05/10 06:25:18;;;;;;;1.17;0.75;;;;;;;;;;5025874;28;20314;-63
2021/05/10 06:27:43;;;;;;;6.15;1.45;;;;;;;;;;5027412;28;20111;-63
2021/05/10 06:30:10;;;;;;;1.80;0.73;;;;;;;;;;5024670;28;20026;-62
2021/05/10 06:32:35;;;;;;;6.10;1.50;;;;;;;;;;5028697;28;20045;-64
2021/05/10 06:35:01;;;;;;;2.10;1.35;;;;;;;;;;5030204;28;20029;-64
2021/05/10 06:37:29;;;;;;;2.83;1.08;;;;;;;;;;5030007;28;20024;-63
2021/05/10 06:39:54;;;;;;;8.85;1.30;;;;;;;;;;5030085;28;20520;-63
2021/05/10 06:42:19;;;;;;;2.70;1.33;;;;;;;;;;5026028;28;20026;-63
2021/05/10 06:44:45;;;;;;;5.40;1.40;;;;;;;;;;5022537;28;20108;-64
2021/05/10 06:47:10;;;;;;;5.32;1.67;;;;;;;;;;5031166;28;20699;-63
2021/05/10 06:49:35;;;;;;;5.25;1.40;;;;;;;;;;5033468;28;20045;-63
2021/05/10 06:52:00;;;;;;;3.67;1.07;;;;;;;;;;5029169;28;20036;-64
2021/05/10 06:54:26;;;;;;;4.85;1.02;;;;;;;;;;5015402;28;20280;-64
2021/05/10 06:56:51;;;;;;;4.47;1.35;;;;;;;;;;5033311;28;20044;-64
2021/05/10 06:59:17;;;;;;;4.80;1.13;;;;;;;;;;5033547;28;20017;-64
2021/05/10 07:01:42;;;;;;;3.40;0.98;;;;;;;;;;5033271;28;20096;-63
2021/05/10 07:04:07;;;;;;;5.47;1.50;;;;;;;;;;5033024;28;20378;-64
2021/05/10 07:06:33;;;;;;;1.90;0.80;;;;;;;;;;5031053;28;20018;-64
2021/05/10 07:08:58;;;;;;;5.13;1.08;;;;;;;;;;5020775;28;20493;-63
2021/05/10 07:11:23;;;;;;;7.15;1.60;;;;;;;;;;5033461;28;20613;-64
2021/05/10 07:13:48;;;;;;;4.53;1.30;;;;;;;;;;5033236;28;20105;-64
2021/05/10 07:16:13;;;;;;;2.85;0.93;;;;;;;;;;5033343;28;20263;-64
2021/05/10 07:18:38;;;;;;;2.37;1.57;;;;;;;;;;5015826;28;20028;-63
2021/05/10 07:21:04;;;;;;;1.42;0.70;;;;;;;;;;5033069;28;20897;-64
2021/05/10 07:23:29;;;;;;;8.10;1.57;;;;;;;;;;5032982;28;20030;-64
2021/05/10 07:25:54;;;;;;;4.30;1.10;;;;;;;;;;5022623;28;20323;-65
2021/05/10 07:28:19;;;;;;;2.92;1.80;;;;;;;;;;5015419;28;20141;-63
2021/05/10 07:30:45;;;;;;;2.23;1.27;;;;;;;;;;5029397;28;20035;-64
2021/05/10 07:33:10;;;;;;;7.30;1.35;;;;;;;;;;5032901;28;20272;-64
2021/05/10 07:35:36;;;;;;;6.22;1.48;;;;;;;;;;5032710;28;20025;-63
2021/05/10 07:38:01;;;;;;;2.15;1.02;;;;;;;;;;5032247;28;20025;-63
2021/05/10 07:40:26;;;;;;;4.47;1.02;;;;;;;;;;5032578;28;20068;-64
2021/05/10 07:42:52;;;;;;;6.82;1.23;;;;;;;;;;5031307;28;20028;-63
2021/05/10 07:45:17;;;;;;;9.25;1.45;;;;;;;;;;5032706;28;20025;-64
2021/05/10 07:47:43;;;;;;;2.40;1.38;;;;;;;;;;5011940;28;20018;-63
2021/05/10 07:50:09;;;;;;;6.47;1.58;;;;;;;;;;5022164;28;20022;-64
2021/05/10 07:52:34;;;;;;;7.03;1.38;;;;;;;;;;5022027;28;20021;-64
2021/05/10 07:54:59;;;;;;;4.77;1.13;;;;;;;;;;5032553;28;20021;-64
2021/05/10 07:57:25;;;;;;;4.07;1.50;;;;;;;;;;5031935;28;20268;-64
2021/05/10 07:59:51;;;;;;;4.15;1.35;;;;;;;;;;5033011;28;20087;-64
2021/05/10 08:02:19;;;;;;;6.65;1.23;;;;;;;;;;5032246;28;20021;-63
2021/05/10 08:04:44;;;;;;;2.85;1.20;;;;;;;;;;5027981;28;20021;-64
2021/05/10 08:07:09;;;;;;;4.53;1.23;;;;;;;;;;5027521;28;20079;-63
2021/05/10 08:09:34;;;;;;;5.43;1.17;;;;;;;;;;5030128;28;20291;-63
2021/05/10 08:11:59;;;;;;;2.38;1.20;;;;;;;;;;5031981;28;20776;-64
2021/05/10 08:14:24;;;;;;;3.42;0.88;;;;;;;;;;5032261;28;20030;-63
2021/05/10 08:16:51;;;;;;;1.25;0.73;;;;;;;;;;5031836;28;20024;-64
2021/05/10 08:19:17;;;;;;;1.45;0.73;;;;;;;;;;5032099;28;20064;-63
2021/05/10 08:21:42;;;;;;;5.10;1.03;;;;;;;;;;5031294;28;20052;-64
2021/05/10 08:24:07;;;;;;;0.50;0.30;;;;;;;;;;5031380;28;20350;-64
2021/05/10 08:26:32;;;;;;;3.33;1.65;;;;;;;;;;5026506;28;20268;-64
2021/05/10 08:28:58;;;;;;;2.30;0.80;;;;;;;;;;5031781;28;20029;-64
2021/05/10 08:31:23;;;;;;;1.10;0.50;;;;;;;;;;5031377;28;20084;-64
2021/05/10 08:33:50;;;;;;;3.50;0.80;;;;;;;;;;5026964;28;20039;-64
2021/05/10 08:36:16;;;;;;;2.63;0.60;;;;;;;;;;5017793;28;20336;-64
2021/05/10 08:38:41;;;;;;;8.50;0.75;;;;;;;;;;5010713;28;20110;-63
2021/05/10 08:41:07;;;;;;;10.40;0.80;;;;;;;;;;5031671;28;20498;-64
2021/05/10 08:43:32;;;;;;;9.82;1.20;;;;;;;;;;5031065;28;20026;-64
2021/05/10 08:46:00;;;;;;;5.97;0.73;;;;;;;;;;5031497;28;20075;-63
2021/05/10 08:48:25;;;;;;;1.73;0.90;;;;;;;;;;5028489;28;20029;-64
2021/05/10 08:50:51;;;;;;;6.10;0.90;;;;;;;;;;5029299;28;20033;-64
2021/05/10 08:53:30;;;;;;;8.30;0.70;;;;;;;;;;5030574;28;20729;-63
2021/05/10 08:55:55;;;;;;;9.50;0.80;;;;;;;;;;5031010;28;20036;-64
2021/05/10 08:58:20;;;;;;;3.03;0.80;;;;;;;;;;5030777;28;20401;-63
2021/05/10 09:00:50;;;;;;;6.63;1.00;;;;;;;;;;5030758;28;20338;-64
2021/05/10 09:03:15;;;;;;;6.60;0.52;;;;;;;;;;5031169;28;20018;-63
2021/05/10 09:05:51;;;;;;;3.60;0.60;;;;;;;;;;5027009;28;20080;-63
2021/05/10 09:08:17;;;;;;;2.35;0.80;;;;;;;;;;5021218;28;20025;-63
2021/05/10 09:11:02;;;;;;;2.08;1.05;;;;;;;;;;5016026;28;20104;-63
2021/05/10 09:13:47;;;;;;;3.13;0.32;;;;;;;;;;5027404;28;20037;-64
2021/05/10 09:16:14;;;;;;;4.55;0.70;;;;;;;;;;5027031;28;20105;-64
2021/05/10 09:18:39;;;;;;;9.55;5.75;;;;;;;;;;5030524;28;20147;-64
2021/05/10 09:21:09;;;;;;;14.02;9.07;;;;;;;;;;5012700;28;20072;-63
2021/05/10 09:23:34;;;;;;;9.57;7.53;;;;;;;;;;5030938;28;20013;-64
2021/05/10 09:25:59;;;;;;;1.85;0.80;;;;;;;;;;5030683;28;20536;-63
2021/05/10 09:28:25;;;;;;;0.60;0.40;;;;;;;;;;5027878;28;20462;-64
2021/05/10 09:30:54;;;;;;;2.33;1.25;;;;;;;;;;5030357;28;20491;-64
2021/05/10 09:33:24;;;;;;;2.83;0.93;;;;;;;;;;5030020;28;20018;-64
2021/05/10 09:35:50;;;;;;;3.35;1.08;;;;;;;;;;5029946;28;20033;-63
2021/05/10 09:38:17;;;;;;;10.02;4.20;;;;;;;;;;5030144;28;20055;-64
2021/05/10 09:40:46;;;;;;;2.97;1.13;;;;;;;;;;5030497;28;20026;-63
2021/05/10 09:43:12;;;;;;;1.95;1.10;;;;;;;;;;5030346;28;20032;-64
2021/05/10 09:45:39;;;;;;;2.20;0.80;;;;;;;;;;5030202;28;20021;-64
2021/05/10 09:48:05;;;;;;;2.25;0.95;;;;;;;;;;5025538;28;20025;-64
2021/05/10 09:50:41;;;;;;;2.83;0.88;;;;;;;;;;5030604;28;20453;-64
2021/05/10 09:53:07;;;;;;;2.58;0.73;;;;;;;;;;5029890;28;20104;-65
2021/05/10 09:55:48;;;;;;;3.22;0.60;;;;;;;;;;5030361;28;20155;-64
2021/05/10 09:58:13;;;;;;;;;;;;;;;;;;5030696;28;20021;-65
2021/05/10 10:00:38;;;;;;;3.15;1.92;;;;;;;;;;5030090;28;19909;-63
2021/05/10 10:03:05;;;;;;;3.58;1.50;;;;;;;;;;5030321;28;20020;-64
2021/05/10 10:05:30;;;;;;;2.42;0.90;;;;;;;;;;5026796;28;20040;-64
2021/05/10 10:07:56;;;;;;;2.85;0.88;;;;;;;;;;5028643;28;20021;-64
2021/05/10 10:10:21;;;;;;;3.58;1.27;;;;;;;;;;5030520;28;20029;-64
2021/05/10 10:12:46;;;;;;;5.50;1.38;;;;;;;;;;5030316;28;20478;-64
2021/05/10 10:15:12;;;;;;;2.13;0.70;;;;;;;;;;5030068;28;20444;-64
2021/05/10 10:17:37;;;;;;;4.00;0.60;;;;;;;;;;5029837;28;20267;-64
2021/05/10 10:20:04;;;;;;;2.17;0.90;;;;;;;;;;5030415;28;20048;-64
2021/05/10 10:22:30;;;;;;;3.20;1.05;;;;;;;;;;5031616;28;20128;-64
2021/05/10 10:24:55;;;;;;;4.03;1.33;;;;;;;;;;5034128;28;20108;-64
2021/05/10 10:27:22;;;;;;;4.63;0.80;;;;;;;;;;5031090;28;20104;-64
2021/05/10 10:29:48;;;;;;;4.55;0.77;;;;;;;;;;5014639;28;20057;-63
2021/05/10 10:32:17;;;;;;;1.35;0.90;;;;;;;;;;5021404;28;20052;-64
2021/05/10 10:34:45;;;;;;;3.25;0.60;;;;;;;;;;5034010;28;20432;-64
2021/05/10 10:37:10;;;;;;;1.75;1.05;;;;;;;;;;5015819;28;20044;-64
2021/05/10 10:39:37;;;;;;;4.57;2.00;;;;;;;;;;5032126;28;20065;-64
2021/05/10 10:42:05;;;;;;;1.80;0.40;;;;;;;;;;5022489;28;20017;-64
2021/05/10 10:44:36;;;;;;;1.08;0.52;;;;;;;;;;5033902;28;20116;-64
2021/05/10 10:47:02;;;;;;;1.25;0.40;;;;;;;;;;5033546;28;20474;-65
2021/05/10 10:49:29;;;;;;;1.98;1.10;;;;;;;;;;5034053;28;20029;-65
2021/05/10 10:51:54;;;;;;;20.25;1.80;;;;;;;;;;5033735;28;20025;-64
2021/05/10 10:54:20;;;;;;;0.82;0.20;;;;;;;;;;5034203;28;20037;-65
2021/05/10 10:56:57;;;;;;;3.92;2.13;;;;;;;;;;5033894;28;20021;-64
2021/05/10 10:59:27;;;;;;;2.50;0.90;;;;;;;;;;5018899;28;20029;-64
2021/05/10 11:01:52;;;;;;;0.93;0.70;;;;;;;;;;5033388;28;20563;-65
2021/05/10 11:04:25;;;;;;;1.65;0.68;;;;;;;;;;5033363;28;20053;-64
2021/05/10 11:06:51;;;;;;;19.83;2.47;;;;;;;;;;5028427;28;20026;-64
2021/05/10 11:09:16;;;;;;;3.00;0.95;;;;;;;;;;5018239;28;20032;-64
2021/05/10 11:11:41;;;;;;;2.00;0.63;;;;;;;;;;5021615;28;20107;-65
2021/05/10 11:14:11;;;;;;;1.20;0.70;;;;;;;;;;5032417;28;20502;-64
2021/05/10 11:16:45;;;;;;;1.60;1.33;;;;;;;;;;5032718;28;20033;-65
2021/05/10 11:19:28;;;;;;;2.03;0.60;;;;;;;;;;5033543;28;20022;-65
2021/05/10 11:21:53;;;;;;;2.53;0.70;;;;;;;;;;5026359;28;20037;-65
2021/05/10 11:24:26;;;;;;;0.50;0.30;;;;;;;;;;5033427;28;20029;-65
2021/05/10 11:26:52;;;;;;;0.98;0.70;;;;;;;;;;5028345;28;20264;-65
2021/05/10 11:29:27;;;;;;;5.72;0.68;;;;;;;;;;5022263;28;20076;-65
2021/05/10 11:31:58;;;;;;;3.17;0.80;;;;;;;;;;5007563;28;20033;-65
2021/05/10 11:34:32;;;;;;;2.47;1.08;;;;;;;;;;5032159;28;20036;-65
2021/05/10 11:36:59;;;;;;;1.35;0.30;;;;;;;;;;5025300;28;20656;-64
2021/05/10 11:39:33;;;;;;;2.17;0.88;;;;;;;;;;5023799;28;20017;-62
2021/05/10 11:42:00;;;;;;;1.23;0.70;;;;;;;;;;5027797;28;20022;-64
2021/05/10 11:44:27;;;;;;;3.60;0.73;;;;;;;;;;5033000;28;20028;-65
2021/05/10 11:46:53;;;;;;;1.50;0.65;;;;;;;;;;5032240;28;20025;-64
2021/05/10 11:49:25;;;;;;;2.67;1.00;;;;;;;;;;5026936;28;20109;-65
2021/05/10 11:51:50;;;;;;;3.13;1.20;;;;;;;;;;5029555;28;20032;-65
2021/05/10 11:54:15;;;;;;;5.75;1.92;;;;;;;;;;5032367;28;20136;-64
2021/05/10 11:56:44;;;;;;;2.77;1.60;;;;;;;;;;5032196;28;20028;-65
2021/05/10 11:59:44;;;;;;;7.75;3.05;;;;;;;;;;5032705;28;20261;-65
2021/05/10 12:02:09;;;;;;;2.67;1.55;;;;;;;;;;5017512;28;20018;-65
2021/05/10 12:04:34;;;;;;;0.90;0.63;;;;;;;;;;5013140;28;20025;-64
2021/05/10 12:07:00;;;;;;;4.93;1.17;;;;;;;;;;5027274;28;21006;-65
2021/05/10 12:09:37;;;;;;;2.38;1.23;;;;;;;;;;5015959;28;20029;-65
2021/05/10 12:12:04;;;;;;;2.80;1.60;;;;;;;;;;5021875;28;20545;-66
2021/05/10 12:14:29;;;;;;;1.65;1.20;;;;;;;;;;5030830;28;20033;-64
2021/05/10 12:17:24;;;;;;;6.38;1.30;;;;;;;;;;5031524;28;20113;-65
2021/05/10 12:19:55;;;;;;;3.08;1.00;;;;;;;;;;5011128;28;20040;-65
2021/05/10 12:22:26;;;;;;;1.23;0.88;;;;;;;;;;5035413;22;20041;-70
2021/05/10 12:25:02;;;;;;;5.80;1.70;;;;;;;;;;5004921;28;20093;-70
2021/05/10 12:27:36;;;;;;;14.32;2.15;;;;;;;;;;5013486;28;20110;-69
2021/05/10 12:30:06;;;;;;;6.68;1.67;;;;;;;;;;5026157;28;20028;-69
2021/05/10 12:32:31;;;;;;;4.45;2.80;;;;;;;;;;5022920;28;20109;-70
2021/05/10 12:34:56;;;;;;;9.90;4.05;;;;;;;;;;5002009;28;20629;-69
2021/05/10 12:37:22;;;;;;;6.93;2.73;;;;;;;;;;5013561;28;20342;-70
2021/05/10 12:39:47;;;;;;;1.58;0.93;;;;;;;;;;4995673;28;20277;-69
2021/05/10 12:42:20;;;;;;;2.47;1.23;;;;;;;;;;5005422;28;20018;-68
2021/05/10 12:45:05;;;;;;;4.68;0.80;;;;;;;;;;5010253;28;20037;-68
2021/05/10 12:47:43;;;;;;;8.40;3.10;;;;;;;;;;5023767;28;20041;-69
2021/05/10 12:50:10;;;;;;;10.23;5.00;;;;;;;;;;5014199;28;20022;-69
2021/05/10 12:52:45;;;;;;;54.20;31.38;;;;;;;;;;5029464;28;20029;-69
2021/05/10 12:55:29;;;;;;;17.15;10.43;;;;;;;;;;5017989;28;20025;-69
2021/05/10 12:57:54;;;;;;;8.18;1.27;;;;;;;;;;5009772;28;20382;-69
2021/05/10 13:00:26;;;;;;;5.50;1.02;;;;;;;;;;4998461;28;20020;-69
2021/05/10 13:02:52;;;;;;;4.68;1.10;;;;;;;;;;4997471;28;20026;-69
2021/05/10 13:05:30;;;;;;;5.25;1.35;;;;;;;;;;5012684;28;20076;-69
2021/05/10 13:07:55;;;;;;;3.50;1.20;;;;;;;;;;5022025;28;20035;-69
2021/05/10 13:10:20;;;;;;;3.55;1.20;;;;;;;;;;5017233;28;20493;-69
2021/05/10 13:12:49;;;;;;;4.78;1.38;;;;;;;;;;4994023;28;20435;-69
2021/05/10 13:15:28;;;;;;;6.00;0.90;;;;;;;;;;5010639;28;20116;-69
2021/05/10 13:18:03;;;;;;;7.60;1.27;;;;;;;;;;5009264;28;20493;-69
2021/05/10 13:21:11;;;;;;;3.38;1.02;;;;;;;;;;5004471;28;20105;-68
2021/05/10 13:31:47;;;;;;;7.43;4.00;;;;;;;;;;5024712;28;20116;-69
2021/05/10 13:36:43;;;;;;;2.38;0.90;;;;;;;;;;5015640;28;20104;-69
2021/05/10 13:39:10;;;;;;;3.95;1.98;;;;;;;;;;5007111;28;20491;-69
2021/05/10 13:41:44;;;;;;;3.90;1.08;;;;;;;;;;5010634;28;20549;-68
2021/05/10 13:44:13;;;;;;;6.18;2.22;;;;;;;;;;5008315;28;20552;-68
2021/05/10 13:46:39;;;;;;;7.55;1.17;;;;;;;;;;5010305;28;20054;-68
2021/05/10 13:49:05;;;;;;;4.28;1.20;;;;;;;;;;4993377;28;20053;-69
2021/05/10 13:51:30;;;;;;;5.88;1.38;;;;;;;;;;5014527;28;20104;-68
2021/05/10 13:53:55;;;;;;;5.13;0.83;;;;;;;;;;5013405;28;20026;-68
2021/05/10 13:56:21;;;;;;;3.80;1.20;;;;;;;;;;5019745;28;20256;-68
2021/05/10 13:58:47;;;;;;;4.55;1.20;;;;;;;;;;5009049;28;20260;-68
2021/05/10 14:01:12;;;;;;;8.93;1.35;;;;;;;;;;5010160;28;20108;-68
2021/05/10 14:03:38;;;;;;;5.38;1.83;;;;;;;;;;5008094;28;20438;-68
2021/05/10 14:06:04;;;;;;;7.65;1.92;;;;;;;;;;5001327;28;20483;-69
2021/05/10 14:08:29;;;;;;;5.65;1.33;;;;;;;;;;5013752;28;20026;-68
2021/05/10 14:10:54;;;;;;;5.50;1.63;;;;;;;;;;5010243;28;20454;-68
2021/05/10 14:13:19;;;;;;;5.90;1.27;;;;;;;;;;5012719;28;20032;-68
2021/05/10 14:15:45;;;;;;;6.07;1.40;;;;;;;;;;5012480;28;20477;-68
2021/05/10 14:18:13;;;;;;;8.37;1.53;;;;;;;;;;4999725;28;20417;-68
2021/05/10 14:23:24;;;;;;;7.30;1.40;;;;;;;;;;4993177;28;20033;-68
2021/05/10 14:25:49;;;;;;;4.67;1.63;;;;;;;;;;5011898;28;20112;-69
2021/05/10 14:28:14;;;;;;;6.82;1.20;;;;;;;;;;5009868;28;20271;-68
2021/05/10 14:30:39;;;;;;;2.70;1.37;;;;;;;;;;5009913;28;20039;-68
2021/05/10 14:33:05;;;;;;;4.73;1.10;;;;;;;;;;5012272;28;20768;-68
2021/05/10 14:35:30;;;;;;;9.67;1.27;;;;;;;;;;5009920;28;20285;-68
2021/05/10 14:37:55;;;;;;;8.30;1.23;;;;;;;;;;5006845;28;20348;-68
2021/05/10 14:40:20;;;;;;;3.42;0.80;;;;;;;;;;5001464;28;20467;-67
2021/05/10 14:42:45;;;;;;;10.15;1.15;;;;;;;;;;5008181;28;20112;-69
2021/05/10 14:45:11;;;;;;;6.70;1.07;;;;;;;;;;5030207;28;20100;-68
2021/05/10 14:47:36;;;;;;;5.75;1.38;;;;;;;;;;5014670;28;20029;-69
2021/05/10 14:50:03;;;;;;;2.67;0.90;;;;;;;;;;5025662;28;20021;-69
2021/05/10 14:52:28;;;;;;;4.72;1.02;;;;;;;;;;5029399;28;20131;-69
2021/05/10 14:54:53;;;;;;;4.37;0.90;;;;;;;;;;5012074;28;20085;-69
2021/05/10 14:57:18;;;;;;;3.87;0.87;;;;;;;;;;5015619;28;20029;-69
2021/05/10 14:59:43;;;;;;;1.70;0.63;;;;;;;;;;5025843;28;20437;-69
2021/05/10 15:02:09;;;;;;;4.37;1.00;;;;;;;;;;5015152;28;20280;-70